sensor_id;sensor_type;location;lat;lon;timestamp;temperature;humidity
51619;DHT22;38518;53.164;5.430;2024-02-15T00:00:10;8.80;1.00
51619;DHT22;38518;53.164;5.430;2024-02-15T00:02:36;8.80;1.00
51619;DHT22;38518;53.164;5.430;2024-02-15T00:05:02;8.80;1.00
51619;DHT22;38518;53.164;5.430;2024-02-15T00:07:28;8.80;1.00
51619;DHT22;38518;53.164;5.430;2024-02-15T00:09:54;8.80;1.00
51619;DHT22;38518;53.164;5.430;2024-02-15T00:12:20;8.80;1.00
51619;DHT22;38518;53.164;5.430;2024-02-15T00:14:46;8.70;1.00
51619;DHT22;38518;53.164;5.430;2024-02-15T00:17:12;8.70;1.00
51619;DHT22;38518;53.164;5.430;2024-02-15T00:19:38;8.70;1.00
51619;DHT22;38518;53.164;5.430;2024-02-15T00:22:07;8.70;1.00
51619;DHT22;38518;53.164;5.430;2024-02-15T00:24:33;8.70;1.00
51619;DHT22;38518;53.164;5.430;2024-02-15T00:26:58;8.60;1.00
51619;DHT22;38518;53.164;5.430;2024-02-15T00:29:24;8.70;1.00
51619;DHT22;38518;53.164;5.430;2024-02-15T00:31:51;8.70;1.00
51619;DHT22;38518;53.164;5.430;2024-02-15T00:34:17;8.70;1.00
51619;DHT22;38518;53.164;5.430;2024-02-15T00:36:44;8.70;1.00
51619;DHT22;38518;53.164;5.430;2024-02-15T00:39:10;8.70;1.00
51619;DHT22;38518;53.164;5.430;2024-02-15T00:41:37;8.80;1.00
51619;DHT22;38518;53.164;5.430;2024-02-15T00:44:10;8.70;1.00
51619;DHT22;38518;53.164;5.430;2024-02-15T00:46:36;8.70;1.00
51619;DHT22;38518;53.164;5.430;2024-02-15T00:49:03;8.70;1.00
51619;DHT22;38518;53.164;5.430;2024-02-15T00:51:35;8.70;1.00
51619;DHT22;38518;53.164;5.430;2024-02-15T00:54:02;8.70;1.00
51619;DHT22;38518;53.164;5.430;2024-02-15T00:56:28;7.80;1.00
51619;DHT22;38518;53.164;5.430;2024-02-15T00:59:01;8.70;1.00
51619;DHT22;38518;53.164;5.430;2024-02-15T01:01:27;7.80;1.00
51619;DHT22;38518;53.164;5.430;2024-02-15T01:03:52;8.60;1.00
51619;DHT22;38518;53.164;5.430;2024-02-15T01:06:18;8.60;1.00
51619;DHT22;38518;53.164;5.430;2024-02-15T01:08:44;8.70;1.00
51619;DHT22;38518;53.164;5.430;2024-02-15T01:11:10;8.50;1.00
51619;DHT22;38518;53.164;5.430;2024-02-15T01:13:36;8.70;1.00
51619;DHT22;38518;53.164;5.430;2024-02-15T01:16:03;8.70;1.00
51619;DHT22;38518;53.164;5.430;2024-02-15T01:18:29;8.70;1.00
51619;DHT22;38518;53.164;5.430;2024-02-15T01:20:55;7.80;1.00
51619;DHT22;38518;53.164;5.430;2024-02-15T01:23:21;8.80;1.00
51619;DHT22;38518;53.164;5.430;2024-02-15T01:25:48;8.80;1.00
51619;DHT22;38518;53.164;5.430;2024-02-15T01:28:14;8.90;1.00
51619;DHT22;38518;53.164;5.430;2024-02-15T01:30:40;8.90;1.00
51619;DHT22;38518;53.164;5.430;2024-02-15T01:33:09;8.90;1.00
51619;DHT22;38518;53.164;5.430;2024-02-15T01:35:37;9.00;1.00
51619;DHT22;38518;53.164;5.430;2024-02-15T01:38:03;9.00;1.00
51619;DHT22;38518;53.164;5.430;2024-02-15T01:40:29;9.10;1.00
51619;DHT22;38518;53.164;5.430;2024-02-15T01:42:55;9.00;1.00
51619;DHT22;38518;53.164;5.430;2024-02-15T01:45:21;9.00;1.00
51619;DHT22;38518;53.164;5.430;2024-02-15T01:47:48;9.00;1.00
51619;DHT22;38518;53.164;5.430;2024-02-15T01:50:15;9.10;1.00
51619;DHT22;38518;53.164;5.430;2024-02-15T01:52:43;8.00;1.00
51619;DHT22;38518;53.164;5.430;2024-02-15T01:55:14;9.10;1.00
51619;DHT22;38518;53.164;5.430;2024-02-15T01:57:45;9.10;1.00
51619;DHT22;38518;53.164;5.430;2024-02-15T02:00:17;9.10;1.00
51619;DHT22;38518;53.164;5.430;2024-02-15T02:02:45;9.10;1.00
51619;DHT22;38518;53.164;5.430;2024-02-15T02:05:12;9.20;1.00
51619;DHT22;38518;53.164;5.430;2024-02-15T02:07:38;9.20;1.00
51619;DHT22;38518;53.164;5.430;2024-02-15T02:10:04;9.10;1.00
51619;DHT22;38518;53.164;5.430;2024-02-15T02:12:31;9.20;1.00
51619;DHT22;38518;53.164;5.430;2024-02-15T02:14:57;9.20;1.00
51619;DHT22;38518;53.164;5.430;2024-02-15T02:17:23;9.20;1.00
51619;DHT22;38518;53.164;5.430;2024-02-15T02:19:49;9.10;1.00
51619;DHT22;38518;53.164;5.430;2024-02-15T02:22:17;9.20;1.00
51619;DHT22;38518;53.164;5.430;2024-02-15T02:25:13;9.80;1.00
51619;DHT22;38518;53.164;5.430;2024-02-15T02:27:39;9.20;1.00
51619;DHT22;38518;53.164;5.430;2024-02-15T02:30:15;9.50;1.00
51619;DHT22;38518;53.164;5.430;2024-02-15T02:32:45;9.20;1.00
51619;DHT22;38518;53.164;5.430;2024-02-15T02:35:14;9.10;1.00
51619;DHT22;38518;53.164;5.430;2024-02-15T02:37:42;9.10;1.00
51619;DHT22;38518;53.164;5.430;2024-02-15T02:40:09;9.10;1.00
51619;DHT22;38518;53.164;5.430;2024-02-15T02:42:54;9.20;1.00
51619;DHT22;38518;53.164;5.430;2024-02-15T02:45:22;9.10;1.00
51619;DHT22;38518;53.164;5.430;2024-02-15T02:47:49;9.20;1.00
51619;DHT22;38518;53.164;5.430;2024-02-15T02:50:15;9.10;1.00
51619;DHT22;38518;53.164;5.430;2024-02-15T02:52:41;9.20;1.00
51619;DHT22;38518;53.164;5.430;2024-02-15T02:55:07;9.20;1.00
51619;DHT22;38518;53.164;5.430;2024-02-15T02:57:37;9.20;1.00
51619;DHT22;38518;53.164;5.430;2024-02-15T03:00:09;9.20;1.00
51619;DHT22;38518;53.164;5.430;2024-02-15T03:02:39;9.20;1.00
51619;DHT22;38518;53.164;5.430;2024-02-15T03:05:06;9.20;1.00
51619;DHT22;38518;53.164;5.430;2024-02-15T03:07:36;9.20;1.00
51619;DHT22;38518;53.164;5.430;2024-02-15T03:10:04;9.20;1.00
51619;DHT22;38518;53.164;5.430;2024-02-15T03:12:31;9.20;1.00
51619;DHT22;38518;53.164;5.430;2024-02-15T03:14:56;9.30;1.00
51619;DHT22;38518;53.164;5.430;2024-02-15T03:17:25;9.30;1.00
51619;DHT22;38518;53.164;5.430;2024-02-15T03:19:51;9.30;1.00
51619;DHT22;38518;53.164;5.430;2024-02-15T03:22:17;9.40;1.00
51619;DHT22;38518;53.164;5.430;2024-02-15T03:24:43;9.40;1.00
51619;DHT22;38518;53.164;5.430;2024-02-15T03:27:09;9.40;1.00
51619;DHT22;38518;53.164;5.430;2024-02-15T03:29:36;9.50;1.00
51619;DHT22;38518;53.164;5.430;2024-02-15T03:32:02;9.50;1.00
51619;DHT22;38518;53.164;5.430;2024-02-15T03:34:30;9.40;1.00
51619;DHT22;38518;53.164;5.430;2024-02-15T03:36:57;9.40;1.00
51619;DHT22;38518;53.164;5.430;2024-02-15T03:39:23;9.40;1.00
51619;DHT22;38518;53.164;5.430;2024-02-15T03:41:49;9.40;1.00
51619;DHT22;38518;53.164;5.430;2024-02-15T03:44:17;9.40;1.00
51619;DHT22;38518;53.164;5.430;2024-02-15T03:46:44;9.30;1.00
51619;DHT22;38518;53.164;5.430;2024-02-15T03:49:17;9.40;1.00
51619;DHT22;38518;53.164;5.430;2024-02-15T03:51:43;9.30;1.00
51619;DHT22;38518;53.164;5.430;2024-02-15T03:54:11;9.30;1.00
51619;DHT22;38518;53.164;5.430;2024-02-15T03:56:45;9.30;1.00
51619;DHT22;38518;53.164;5.430;2024-02-15T03:59:11;9.40;1.00
51619;DHT22;38518;53.164;5.430;2024-02-15T04:01:38;9.40;1.00
51619;DHT22;38518;53.164;5.430;2024-02-15T04:04:05;9.40;1.00
51619;DHT22;38518;53.164;5.430;2024-02-15T04:06:31;9.50;1.00
51619;DHT22;38518;53.164;5.430;2024-02-15T04:08:59;9.50;1.00
51619;DHT22;38518;53.164;5.430;2024-02-15T04:11:25;9.60;1.00
51619;DHT22;38518;53.164;5.430;2024-02-15T04:13:51;9.70;1.00
51619;DHT22;38518;53.164;5.430;2024-02-15T04:16:17;9.80;1.00
51619;DHT22;38518;53.164;5.430;2024-02-15T04:18:43;9.90;1.00
51619;DHT22;38518;53.164;5.430;2024-02-15T04:21:10;9.90;1.00
51619;DHT22;38518;53.164;5.430;2024-02-15T04:23:36;9.90;1.00
51619;DHT22;38518;53.164;5.430;2024-02-15T04:26:03;10.00;1.00
51619;DHT22;38518;53.164;5.430;2024-02-15T04:28:29;10.00;1.00
51619;DHT22;38518;53.164;5.430;2024-02-15T04:30:55;10.00;1.00
51619;DHT22;38518;53.164;5.430;2024-02-15T04:33:21;10.00;1.00
51619;DHT22;38518;53.164;5.430;2024-02-15T04:35:46;10.00;1.00
51619;DHT22;38518;53.164;5.430;2024-02-15T04:38:14;10.00;1.00
51619;DHT22;38518;53.164;5.430;2024-02-15T04:40:40;10.80;1.00
51619;DHT22;38518;53.164;5.430;2024-02-15T04:43:06;10.00;1.00
51619;DHT22;38518;53.164;5.430;2024-02-15T04:45:34;10.10;1.00
51619;DHT22;38518;53.164;5.430;2024-02-15T04:48:00;10.00;1.00
51619;DHT22;38518;53.164;5.430;2024-02-15T04:50:28;10.10;1.00
51619;DHT22;38518;53.164;5.430;2024-02-15T04:52:55;10.10;1.00
51619;DHT22;38518;53.164;5.430;2024-02-15T04:55:21;10.10;1.00
51619;DHT22;38518;53.164;5.430;2024-02-15T04:57:49;10.10;1.00
51619;DHT22;38518;53.164;5.430;2024-02-15T05:00:15;10.10;1.00
51619;DHT22;38518;53.164;5.430;2024-02-15T05:02:42;10.20;1.00
51619;DHT22;38518;53.164;5.430;2024-02-15T05:05:10;10.20;1.00
51619;DHT22;38518;53.164;5.430;2024-02-15T05:07:38;10.20;1.00
51619;DHT22;38518;53.164;5.430;2024-02-15T05:10:06;9.90;1.00
51619;DHT22;38518;53.164;5.430;2024-02-15T05:12:33;10.20;1.00
51619;DHT22;38518;53.164;5.430;2024-02-15T05:14:59;10.20;1.00
51619;DHT22;38518;53.164;5.430;2024-02-15T05:17:26;10.20;1.00
51619;DHT22;38518;53.164;5.430;2024-02-15T05:19:54;10.20;1.00
51619;DHT22;38518;53.164;5.430;2024-02-15T05:22:19;10.20;1.00
51619;DHT22;38518;53.164;5.430;2024-02-15T05:24:45;10.20;1.00
51619;DHT22;38518;53.164;5.430;2024-02-15T05:27:11;10.20;1.00
51619;DHT22;38518;53.164;5.430;2024-02-15T05:29:38;10.30;1.00
51619;DHT22;38518;53.164;5.430;2024-02-15T05:32:05;10.30;1.00
51619;DHT22;38518;53.164;5.430;2024-02-15T05:34:31;10.20;1.00
51619;DHT22;38518;53.164;5.430;2024-02-15T05:36:57;10.30;1.00
51619;DHT22;38518;53.164;5.430;2024-02-15T05:39:22;10.30;1.00
51619;DHT22;38518;53.164;5.430;2024-02-15T05:41:48;10.30;1.00
51619;DHT22;38518;53.164;5.430;2024-02-15T05:44:14;10.30;1.00
51619;DHT22;38518;53.164;5.430;2024-02-15T05:46:45;10.30;1.00
51619;DHT22;38518;53.164;5.430;2024-02-15T05:49:10;10.30;1.00
51619;DHT22;38518;53.164;5.430;2024-02-15T05:51:41;10.30;1.00
51619;DHT22;38518;53.164;5.430;2024-02-15T05:54:07;10.30;1.00
51619;DHT22;38518;53.164;5.430;2024-02-15T05:56:33;10.20;1.00
51619;DHT22;38518;53.164;5.430;2024-02-15T05:58:59;10.20;1.00
51619;DHT22;38518;53.164;5.430;2024-02-15T06:01:27;10.20;1.00
51619;DHT22;38518;53.164;5.430;2024-02-15T06:03:54;10.10;1.00
51619;DHT22;38518;53.164;5.430;2024-02-15T06:06:21;10.10;1.00
51619;DHT22;38518;53.164;5.430;2024-02-15T06:08:49;10.10;1.00
51619;DHT22;38518;53.164;5.430;2024-02-15T06:11:19;10.00;1.00
51619;DHT22;38518;53.164;5.430;2024-02-15T06:13:46;10.10;1.00
51619;DHT22;38518;53.164;5.430;2024-02-15T06:16:12;10.10;1.00
51619;DHT22;38518;53.164;5.430;2024-02-15T06:18:37;10.10;1.00
51619;DHT22;38518;53.164;5.430;2024-02-15T06:21:03;10.00;1.00
51619;DHT22;38518;53.164;5.430;2024-02-15T06:23:31;10.00;1.00
51619;DHT22;38518;53.164;5.430;2024-02-15T06:25:58;10.00;1.00
51619;DHT22;38518;53.164;5.430;2024-02-15T06:28:26;10.00;1.00
51619;DHT22;38518;53.164;5.430;2024-02-15T06:31:11;9.90;1.00
51619;DHT22;38518;53.164;5.430;2024-02-15T06:33:56;10.00;1.00
51619;DHT22;38518;53.164;5.430;2024-02-15T06:36:52;9.90;1.00
51619;DHT22;38518;53.164;5.430;2024-02-15T06:39:36;9.90;1.00
51619;DHT22;38518;53.164;5.430;2024-02-15T06:42:13;9.90;1.00
51619;DHT22;38518;53.164;5.430;2024-02-15T06:44:47;9.90;1.00
51619;DHT22;38518;53.164;5.430;2024-02-15T06:47:14;9.90;1.00
51619;DHT22;38518;53.164;5.430;2024-02-15T06:49:42;9.90;1.00
51619;DHT22;38518;53.164;5.430;2024-02-15T06:52:10;9.90;1.00
51619;DHT22;38518;53.164;5.430;2024-02-15T06:54:40;9.90;1.00
51619;DHT22;38518;53.164;5.430;2024-02-15T06:57:06;9.90;1.00
51619;DHT22;38518;53.164;5.430;2024-02-15T06:59:33;10.00;1.00
51619;DHT22;38518;53.164;5.430;2024-02-15T07:02:05;10.00;1.00
51619;DHT22;38518;53.164;5.430;2024-02-15T07:04:31;10.10;1.00
51619;DHT22;38518;53.164;5.430;2024-02-15T07:06:57;10.00;1.00
51619;DHT22;38518;53.164;5.430;2024-02-15T07:09:23;10.10;1.00
51619;DHT22;38518;53.164;5.430;2024-02-15T07:11:52;10.10;1.00
51619;DHT22;38518;53.164;5.430;2024-02-15T07:14:19;10.10;1.00
51619;DHT22;38518;53.164;5.430;2024-02-15T07:16:49;10.10;1.00
51619;DHT22;38518;53.164;5.430;2024-02-15T07:19:15;10.10;1.00
51619;DHT22;38518;53.164;5.430;2024-02-15T07:21:42;10.10;1.00
51619;DHT22;38518;53.164;5.430;2024-02-15T07:24:08;10.20;1.00
51619;DHT22;38518;53.164;5.430;2024-02-15T07:26:35;10.10;1.00
51619;DHT22;38518;53.164;5.430;2024-02-15T07:29:02;10.20;1.00
51619;DHT22;38518;53.164;5.430;2024-02-15T07:31:31;10.90;1.00
51619;DHT22;38518;53.164;5.430;2024-02-15T07:33:58;10.20;1.00
51619;DHT22;38518;53.164;5.430;2024-02-15T07:36:24;10.20;1.00
51619;DHT22;38518;53.164;5.430;2024-02-15T07:38:52;10.20;1.00
51619;DHT22;38518;53.164;5.430;2024-02-15T07:41:20;10.20;1.00
51619;DHT22;38518;53.164;5.430;2024-02-15T07:43:48;10.30;1.00
51619;DHT22;38518;53.164;5.430;2024-02-15T07:46:14;10.30;1.00
51619;DHT22;38518;53.164;5.430;2024-02-15T07:48:44;10.20;1.00
51619;DHT22;38518;53.164;5.430;2024-02-15T07:51:18;10.30;1.00
51619;DHT22;38518;53.164;5.430;2024-02-15T07:53:47;10.30;1.00
51619;DHT22;38518;53.164;5.430;2024-02-15T07:56:14;10.30;1.00
51619;DHT22;38518;53.164;5.430;2024-02-15T07:58:45;10.30;1.00
51619;DHT22;38518;53.164;5.430;2024-02-15T08:01:13;10.30;1.00
51619;DHT22;38518;53.164;5.430;2024-02-15T08:03:39;10.40;1.00
51619;DHT22;38518;53.164;5.430;2024-02-15T08:06:13;10.40;1.00
51619;DHT22;38518;53.164;5.430;2024-02-15T08:08:47;10.40;1.00
51619;DHT22;38518;53.164;5.430;2024-02-15T08:11:14;10.40;1.00
51619;DHT22;38518;53.164;5.430;2024-02-15T08:13:47;10.50;1.00
51619;DHT22;38518;53.164;5.430;2024-02-15T08:16:22;10.40;1.00
51619;DHT22;38518;53.164;5.430;2024-02-15T08:18:51;10.40;1.00
51619;DHT22;38518;53.164;5.430;2024-02-15T08:21:33;10.50;1.00
51619;DHT22;38518;53.164;5.430;2024-02-15T08:24:04;10.50;1.00
51619;DHT22;38518;53.164;5.430;2024-02-15T08:26:38;10.50;1.00
51619;DHT22;38518;53.164;5.430;2024-02-15T08:29:05;10.50;1.00
51619;DHT22;38518;53.164;5.430;2024-02-15T08:31:35;10.50;1.00
51619;DHT22;38518;53.164;5.430;2024-02-15T08:34:04;10.50;1.00
51619;DHT22;38518;53.164;5.430;2024-02-15T08:36:36;10.50;1.00
51619;DHT22;38518;53.164;5.430;2024-02-15T08:39:02;10.50;1.00
51619;DHT22;38518;53.164;5.430;2024-02-15T08:41:29;10.60;1.00
51619;DHT22;38518;53.164;5.430;2024-02-15T08:43:55;10.60;1.00
51619;DHT22;38518;53.164;5.430;2024-02-15T08:46:23;10.60;1.00
51619;DHT22;38518;53.164;5.430;2024-02-15T08:48:51;10.70;1.00
51619;DHT22;38518;53.164;5.430;2024-02-15T08:51:17;10.70;1.00
51619;DHT22;38518;53.164;5.430;2024-02-15T08:53:43;10.70;1.00
51619;DHT22;38518;53.164;5.430;2024-02-15T08:56:09;10.80;1.00
51619;DHT22;38518;53.164;5.430;2024-02-15T08:58:35;10.80;1.00
51619;DHT22;38518;53.164;5.430;2024-02-15T09:01:02;10.80;1.00
51619;DHT22;38518;53.164;5.430;2024-02-15T09:03:28;10.90;1.00
51619;DHT22;38518;53.164;5.430;2024-02-15T09:05:54;10.90;1.00
51619;DHT22;38518;53.164;5.430;2024-02-15T09:08:20;10.80;1.00
51619;DHT22;38518;53.164;5.430;2024-02-15T09:10:49;10.90;1.00
51619;DHT22;38518;53.164;5.430;2024-02-15T09:13:15;10.90;1.00
51619;DHT22;38518;53.164;5.430;2024-02-15T09:15:41;10.90;1.00
51619;DHT22;38518;53.164;5.430;2024-02-15T09:18:08;10.90;1.00
51619;DHT22;38518;53.164;5.430;2024-02-15T09:20:36;10.90;1.00
51619;DHT22;38518;53.164;5.430;2024-02-15T09:23:03;11.00;1.00
51619;DHT22;38518;53.164;5.430;2024-02-15T09:25:36;11.00;1.00
51619;DHT22;38518;53.164;5.430;2024-02-15T09:28:03;10.90;1.00
51619;DHT22;38518;53.164;5.430;2024-02-15T09:30:29;11.00;1.00
51619;DHT22;38518;53.164;5.430;2024-02-15T09:32:57;11.00;1.00
51619;DHT22;38518;53.164;5.430;2024-02-15T09:35:23;11.00;1.00
51619;DHT22;38518;53.164;5.430;2024-02-15T09:37:49;11.00;1.00
51619;DHT22;38518;53.164;5.430;2024-02-15T09:40:16;11.10;1.00
51619;DHT22;38518;53.164;5.430;2024-02-15T09:42:47;11.10;1.00
51619;DHT22;38518;53.164;5.430;2024-02-15T09:45:13;11.00;1.00
51619;DHT22;38518;53.164;5.430;2024-02-15T09:47:43;11.00;1.00
51619;DHT22;38518;53.164;5.430;2024-02-15T09:50:11;11.10;1.00
51619;DHT22;38518;53.164;5.430;2024-02-15T09:52:39;11.10;1.00
51619;DHT22;38518;53.164;5.430;2024-02-15T09:55:07;11.10;1.00
51619;DHT22;38518;53.164;5.430;2024-02-15T09:57:42;11.10;1.00
51619;DHT22;38518;53.164;5.430;2024-02-15T10:00:09;11.20;1.00
51619;DHT22;38518;53.164;5.430;2024-02-15T10:02:40;11.10;1.00
51619;DHT22;38518;53.164;5.430;2024-02-15T10:05:07;11.10;1.00
51619;DHT22;38518;53.164;5.430;2024-02-15T10:07:41;10.00;1.00
51619;DHT22;38518;53.164;5.430;2024-02-15T10:10:18;11.20;1.00
51619;DHT22;38518;53.164;5.430;2024-02-15T10:12:48;11.10;1.00
51619;DHT22;38518;53.164;5.430;2024-02-15T10:15:34;11.10;1.00
51619;DHT22;38518;53.164;5.430;2024-02-15T10:20:29;11.20;1.00
51619;DHT22;38518;53.164;5.430;2024-02-15T10:23:08;11.20;1.00
51619;DHT22;38518;53.164;5.430;2024-02-15T10:25:35;11.20;1.00
51619;DHT22;38518;53.164;5.430;2024-02-15T10:28:03;11.20;1.00
51619;DHT22;38518;53.164;5.430;2024-02-15T10:30:39;11.20;1.00
51619;DHT22;38518;53.164;5.430;2024-02-15T10:33:06;11.20;1.00
51619;DHT22;38518;53.164;5.430;2024-02-15T10:35:35;11.20;1.00
51619;DHT22;38518;53.164;5.430;2024-02-15T10:38:07;11.30;1.00
51619;DHT22;38518;53.164;5.430;2024-02-15T10:40:37;11.20;1.00
51619;DHT22;38518;53.164;5.430;2024-02-15T10:43:06;11.20;1.00
51619;DHT22;38518;53.164;5.430;2024-02-15T10:45:35;11.20;1.00
51619;DHT22;38518;53.164;5.430;2024-02-15T10:48:09;11.30;1.00
51619;DHT22;38518;53.164;5.430;2024-02-15T10:50:36;11.10;1.00
51619;DHT22;38518;53.164;5.430;2024-02-15T10:53:28;11.10;1.00
51619;DHT22;38518;53.164;5.430;2024-02-15T10:56:18;11.10;1.00
51619;DHT22;38518;53.164;5.430;2024-02-15T10:58:50;11.00;1.00
51619;DHT22;38518;53.164;5.430;2024-02-15T11:01:21;10.90;1.00
51619;DHT22;38518;53.164;5.430;2024-02-15T11:03:51;11.00;1.00
51619;DHT22;38518;53.164;5.430;2024-02-15T11:06:38;11.00;1.00
51619;DHT22;38518;53.164;5.430;2024-02-15T11:09:10;10.90;1.00
51619;DHT22;38518;53.164;5.430;2024-02-15T11:11:41;10.90;1.00
51619;DHT22;38518;53.164;5.430;2024-02-15T11:14:27;10.90;1.00
51619;DHT22;38518;53.164;5.430;2024-02-15T11:17:01;11.00;1.00
51619;DHT22;38518;53.164;5.430;2024-02-15T11:22:00;11.00;1.00
51619;DHT22;38518;53.164;5.430;2024-02-15T11:24:30;11.10;1.00
51619;DHT22;38518;53.164;5.430;2024-02-15T11:27:04;11.10;1.00
51619;DHT22;38518;53.164;5.430;2024-02-15T11:29:49;11.20;1.00
51619;DHT22;38518;53.164;5.430;2024-02-15T11:32:58;11.20;1.00
51619;DHT22;38518;53.164;5.430;2024-02-15T11:35:25;11.20;1.00
51619;DHT22;38518;53.164;5.430;2024-02-15T11:37:58;11.20;1.00
51619;DHT22;38518;53.164;5.430;2024-02-15T11:40:59;11.20;1.00
51619;DHT22;38518;53.164;5.430;2024-02-15T11:46:11;11.20;1.00
51619;DHT22;38518;53.164;5.430;2024-02-15T11:48:39;11.20;1.00
51619;DHT22;38518;53.164;5.430;2024-02-15T11:51:05;11.20;1.00
51619;DHT22;38518;53.164;5.430;2024-02-15T11:53:32;11.20;1.00
51619;DHT22;38518;53.164;5.430;2024-02-15T11:56:05;11.20;1.00
51619;DHT22;38518;53.164;5.430;2024-02-15T12:02:11;11.10;1.00
51619;DHT22;38518;53.164;5.430;2024-02-15T12:04:56;11.10;1.00
51619;DHT22;38518;53.164;5.430;2024-02-15T12:07:41;11.10;1.00
51619;DHT22;38518;53.164;5.430;2024-02-15T12:10:26;11.00;3.80
51619;DHT22;38518;53.164;5.430;2024-02-15T12:13:11;11.00;1.90
51619;DHT22;38518;53.164;5.430;2024-02-15T12:16:01;11.10;1.00
51619;DHT22;38518;53.164;5.430;2024-02-15T12:18:46;11.10;1.00
51619;DHT22;38518;53.164;5.430;2024-02-15T12:21:20;11.10;1.00
51619;DHT22;38518;53.164;5.430;2024-02-15T12:23:48;11.20;2.40
51619;DHT22;38518;53.164;5.430;2024-02-15T12:26:21;11.20;3.30
51619;DHT22;38518;53.164;5.430;2024-02-15T12:28:52;11.30;5.50
51619;DHT22;38518;53.164;5.430;2024-02-15T12:31:20;10.80;7.00
51619;DHT22;38518;53.164;5.430;2024-02-15T12:33:46;11.50;9.60
51619;DHT22;38518;53.164;5.430;2024-02-15T12:36:14;11.50;10.00
51619;DHT22;38518;53.164;5.430;2024-02-15T12:38:42;11.50;10.30
51619;DHT22;38518;53.164;5.430;2024-02-15T12:41:20;11.10;10.00
51619;DHT22;38518;53.164;5.430;2024-02-15T12:43:46;11.60;10.20
51619;DHT22;38518;53.164;5.430;2024-02-15T12:46:17;11.70;11.80
51619;DHT22;38518;53.164;5.430;2024-02-15T12:48:43;11.70;12.70
51619;DHT22;38518;53.164;5.430;2024-02-15T12:51:15;11.80;13.80
51619;DHT22;38518;53.164;5.430;2024-02-15T12:53:42;11.80;13.70
51619;DHT22;38518;53.164;5.430;2024-02-15T12:56:20;11.80;13.00
51619;DHT22;38518;53.164;5.430;2024-02-15T12:58:46;11.80;14.00
51619;DHT22;38518;53.164;5.430;2024-02-15T13:01:12;12.20;13.60
51619;DHT22;38518;53.164;5.430;2024-02-15T13:03:38;11.90;14.80
51619;DHT22;38518;53.164;5.430;2024-02-15T13:06:04;11.90;13.70
51619;DHT22;38518;53.164;5.430;2024-02-15T13:08:29;12.00;14.10
51619;DHT22;38518;53.164;5.430;2024-02-15T13:10:57;12.00;14.30
51619;DHT22;38518;53.164;5.430;2024-02-15T13:13:23;12.00;14.50
51619;DHT22;38518;53.164;5.430;2024-02-15T13:15:48;11.90;12.70
51619;DHT22;38518;53.164;5.430;2024-02-15T13:18:14;12.00;12.60
51619;DHT22;38518;53.164;5.430;2024-02-15T13:20:40;11.50;12.50
51619;DHT22;38518;53.164;5.430;2024-02-15T13:23:10;11.90;13.20
51619;DHT22;38518;53.164;5.430;2024-02-15T13:25:49;12.00;11.40
51619;DHT22;38518;53.164;5.430;2024-02-15T13:28:15;12.00;13.40
51619;DHT22;38518;53.164;5.430;2024-02-15T13:30:42;11.90;13.90
51619;DHT22;38518;53.164;5.430;2024-02-15T13:33:11;11.90;10.80
51619;DHT22;38518;53.164;5.430;2024-02-15T13:35:37;11.80;9.50
51619;DHT22;38518;53.164;5.430;2024-02-15T13:38:03;11.80;9.50
51619;DHT22;38518;53.164;5.430;2024-02-15T13:40:29;11.80;8.00
51619;DHT22;38518;53.164;5.430;2024-02-15T13:43:00;11.80;6.80
51619;DHT22;38518;53.164;5.430;2024-02-15T13:45:39;11.80;7.10
51619;DHT22;38518;53.164;5.430;2024-02-15T13:48:05;11.80;6.50
51619;DHT22;38518;53.164;5.430;2024-02-15T13:50:33;11.80;5.80
51619;DHT22;38518;53.164;5.430;2024-02-15T13:52:59;11.80;6.50
51619;DHT22;38518;53.164;5.430;2024-02-15T13:55:26;11.80;7.00
51619;DHT22;38518;53.164;5.430;2024-02-15T13:57:52;11.80;7.00
51619;DHT22;38518;53.164;5.430;2024-02-15T14:00:19;11.80;7.90
51619;DHT22;38518;53.164;5.430;2024-02-15T14:02:52;11.80;8.30
51619;DHT22;38518;53.164;5.430;2024-02-15T14:05:19;11.80;8.10
51619;DHT22;38518;53.164;5.430;2024-02-15T14:07:49;11.90;9.40
51619;DHT22;38518;53.164;5.430;2024-02-15T14:10:16;11.90;13.40
51619;DHT22;38518;53.164;5.430;2024-02-15T14:12:47;12.00;12.80
51619;DHT22;38518;53.164;5.430;2024-02-15T14:15:15;12.10;14.50
51619;DHT22;38518;53.164;5.430;2024-02-15T14:17:43;12.10;15.60
51619;DHT22;38518;53.164;5.430;2024-02-15T14:20:10;12.20;17.00
51619;DHT22;38518;53.164;5.430;2024-02-15T14:22:44;12.20;17.80
51619;DHT22;38518;53.164;5.430;2024-02-15T14:25:10;12.30;18.10
51619;DHT22;38518;53.164;5.430;2024-02-15T14:27:40;12.40;18.70
51619;DHT22;38518;53.164;5.430;2024-02-15T14:30:11;12.40;19.50
51619;DHT22;38518;53.164;5.430;2024-02-15T14:32:55;12.40;19.30
51619;DHT22;38518;53.164;5.430;2024-02-15T14:35:34;12.40;18.30
51619;DHT22;38518;53.164;5.430;2024-02-15T14:38:07;12.50;18.40
51619;DHT22;38518;53.164;5.430;2024-02-15T14:40:40;12.40;17.80
51619;DHT22;38518;53.164;5.430;2024-02-15T14:43:06;12.50;18.10
51619;DHT22;38518;53.164;5.430;2024-02-15T14:45:38;12.50;17.40
51619;DHT22;38518;53.164;5.430;2024-02-15T14:48:07;12.50;19.20
51619;DHT22;38518;53.164;5.430;2024-02-15T14:50:41;12.60;20.20
51619;DHT22;38518;53.164;5.430;2024-02-15T14:53:07;12.60;23.00
51619;DHT22;38518;53.164;5.430;2024-02-15T14:55:36;12.70;22.50
51619;DHT22;38518;53.164;5.430;2024-02-15T14:58:08;12.70;23.60
51619;DHT22;38518;53.164;5.430;2024-02-15T15:00:35;12.70;25.00
51619;DHT22;38518;53.164;5.430;2024-02-15T15:03:03;12.70;24.10
51619;DHT22;38518;53.164;5.430;2024-02-15T15:05:30;12.70;22.50
51619;DHT22;38518;53.164;5.430;2024-02-15T15:08:14;12.70;24.50
51619;DHT22;38518;53.164;5.430;2024-02-15T15:10:58;12.60;24.30
51619;DHT22;38518;53.164;5.430;2024-02-15T15:13:42;12.70;26.30
51619;DHT22;38518;53.164;5.430;2024-02-15T15:16:11;12.70;29.40
51619;DHT22;38518;53.164;5.430;2024-02-15T15:18:43;12.70;29.20
51619;DHT22;38518;53.164;5.430;2024-02-15T15:21:11;12.70;29.40
51619;DHT22;38518;53.164;5.430;2024-02-15T15:23:37;12.70;29.50
51619;DHT22;38518;53.164;5.430;2024-02-15T15:26:10;12.60;29.20
51619;DHT22;38518;53.164;5.430;2024-02-15T15:28:40;12.60;30.90
51619;DHT22;38518;53.164;5.430;2024-02-15T15:31:07;12.60;33.60
51619;DHT22;38518;53.164;5.430;2024-02-15T15:33:36;12.50;33.20
51619;DHT22;38518;53.164;5.430;2024-02-15T15:36:04;12.60;34.20
51619;DHT22;38518;53.164;5.430;2024-02-15T15:38:32;12.50;35.20
51619;DHT22;38518;53.164;5.430;2024-02-15T15:41:01;12.50;36.30
51619;DHT22;38518;53.164;5.430;2024-02-15T15:43:29;13.10;34.40
51619;DHT22;38518;53.164;5.430;2024-02-15T15:45:55;12.50;35.50
51619;DHT22;38518;53.164;5.430;2024-02-15T15:48:23;12.40;36.40
51619;DHT22;38518;53.164;5.430;2024-02-15T15:50:49;12.50;36.80
51619;DHT22;38518;53.164;5.430;2024-02-15T15:53:15;12.40;37.70
51619;DHT22;38518;53.164;5.430;2024-02-15T15:55:40;11.90;37.60
51619;DHT22;38518;53.164;5.430;2024-02-15T15:58:07;12.50;38.50
51619;DHT22;38518;53.164;5.430;2024-02-15T16:00:34;12.50;40.00
51619;DHT22;38518;53.164;5.430;2024-02-15T16:03:04;12.50;39.30
51619;DHT22;38518;53.164;5.430;2024-02-15T16:05:56;12.50;41.60
51619;DHT22;38518;53.164;5.430;2024-02-15T16:08:37;12.60;42.20
51619;DHT22;38518;53.164;5.430;2024-02-15T16:11:06;12.40;40.60